createdAt,value
2022-11-01T00:04:51.690Z,1.67
2022-11-01T00:09:53.065Z,2.05
2022-11-01T00:14:54.552Z,1.73
2022-11-01T00:19:55.971Z,1.90
2022-11-01T00:24:57.364Z,1.15
2022-11-01T00:29:58.772Z,1.83
2022-11-01T00:35:00.162Z,1.75
2022-11-01T00:40:01.616Z,1.90
2022-11-01T00:45:03.097Z,1.48
2022-11-01T00:50:04.683Z,1.52
2022-11-01T00:55:06.206Z,1.88
2022-11-01T01:00:08.131Z,2.50
2022-11-01T01:05:09.950Z,1.45
2022-11-01T01:10:11.400Z,1.27
2022-11-01T01:15:12.992Z,1.38
2022-11-01T01:20:14.712Z,1.33
2022-11-01T01:25:16.271Z,1.30
2022-11-01T01:30:17.741Z,1.05
2022-11-01T01:35:19.141Z,1.30
2022-11-01T01:40:20.553Z,1.40
2022-11-01T01:45:30.001Z,0.85
2022-11-01T01:50:34.354Z,1.17
2022-11-01T01:55:37.956Z,1.00
2022-11-01T02:00:39.478Z,1.05
2022-11-01T02:05:59.749Z,0.98
2022-11-01T02:11:02.510Z,1.05
2022-11-01T02:16:13.128Z,0.98
2022-11-01T02:21:29.509Z,1.30
2022-11-01T02:26:47.991Z,1.30
2022-11-01T02:31:58.297Z,1.02
2022-11-01T02:42:04.050Z,1.02
2022-11-01T02:47:05.659Z,1.75
2022-11-01T02:52:12.840Z,1.23
2022-11-01T02:57:17.068Z,1.40
2022-11-01T03:02:21.469Z,1.10
2022-11-01T03:07:22.894Z,1.33
2022-11-01T03:17:33.264Z,1.35
2022-11-01T03:22:40.688Z,1.10
2022-11-01T03:27:44.678Z,1.48
2022-11-01T03:32:51.539Z,1.83
2022-11-01T03:37:54.534Z,1.20
2022-11-01T03:42:58.745Z,1.60
2022-11-01T03:48:01.001Z,1.70
2022-11-01T03:53:02.956Z,1.30
2022-11-01T03:58:04.725Z,1.25
2022-11-01T04:03:06.721Z,1.23
2022-11-01T04:08:09.631Z,1.70
2022-11-01T04:13:11.061Z,1.15
2022-11-01T04:18:34.176Z,1.40
2022-11-01T04:23:35.673Z,1.20
2022-11-01T04:28:37.127Z,0.90
2022-11-01T04:33:38.544Z,1.08
2022-11-01T04:38:40.015Z,1.40
2022-11-01T04:43:41.405Z,1.17
2022-11-01T04:48:42.872Z,1.58
2022-11-01T04:53:44.295Z,1.20
2022-11-01T04:58:46.730Z,1.58
2022-11-01T05:03:48.397Z,2.08
2022-11-01T05:08:49.783Z,1.20
2022-11-01T05:13:51.555Z,1.55
2022-11-01T05:18:52.945Z,1.40
2022-11-01T05:23:54.335Z,1.83
2022-11-01T05:28:55.725Z,1.33
2022-11-01T05:33:57.106Z,1.13
2022-11-01T05:38:58.889Z,1.45
2022-11-01T05:44:00.308Z,1.00
2022-11-01T05:49:01.768Z,1.00
2022-11-01T05:54:03.204Z,0.90
2022-11-01T05:59:04.682Z,0.90
2022-11-01T06:04:06.330Z,1.05
2022-11-01T06:09:07.833Z,1.30
2022-11-01T06:14:10.368Z,0.63
2022-11-01T06:19:11.794Z,1.30
2022-11-01T06:24:13.312Z,0.77
2022-11-01T06:29:14.737Z,0.95
2022-11-01T06:34:16.159Z,1.17
2022-11-01T06:39:18.589Z,1.10
2022-11-01T06:44:19.988Z,0.85
2022-11-01T06:49:21.613Z,1.13
2022-11-01T06:54:23.038Z,1.10
2022-11-01T06:59:25.060Z,1.05
2022-11-01T07:04:28.967Z,1.20
2022-11-01T07:09:30.405Z,1.23
2022-11-01T07:14:31.950Z,0.90
2022-11-01T07:19:33.344Z,1.38
2022-11-01T07:24:34.794Z,1.27
2022-11-01T07:29:36.202Z,0.93
2022-11-01T07:34:37.643Z,1.08
2022-11-01T07:39:39.190Z,1.85
2022-11-01T07:44:45.287Z,1.23
2022-11-01T07:49:47.636Z,1.25
2022-11-01T07:54:49.029Z,1.27
2022-11-01T07:59:50.450Z,1.48
2022-11-01T08:04:51.854Z,0.85
2022-11-01T08:09:53.247Z,1.58
2022-11-01T08:14:54.697Z,1.13
2022-11-01T08:19:56.311Z,1.15
2022-11-01T08:24:57.733Z,1.42
2022-11-01T08:29:59.145Z,1.80
2022-11-01T08:35:00.535Z,1.30
2022-11-01T08:40:02.071Z,1.13
2022-11-01T08:45:04.153Z,1.38
2022-11-01T08:50:08.716Z,1.77
2022-11-01T08:55:12.556Z,1.40
2022-11-01T09:00:14.478Z,1.45
2022-11-01T09:05:16.209Z,1.77
2022-11-01T09:10:17.688Z,1.25
2022-11-01T09:15:19.154Z,1.20
2022-11-01T09:20:20.633Z,1.60
2022-11-01T09:25:22.046Z,1.10
2022-11-01T09:30:23.805Z,1.52
2022-11-01T09:35:25.200Z,1.17
2022-11-01T09:40:30.295Z,1.00
2022-11-01T09:45:32.725Z,1.10
2022-11-01T09:50:37.644Z,1.20
2022-11-01T09:55:39.031Z,1.38
2022-11-01T10:00:44.671Z,1.30
2022-11-01T10:06:00.083Z,1.33
2022-11-01T10:11:16.510Z,1.00
2022-11-01T10:16:17.941Z,1.10
2022-11-01T10:21:22.464Z,1.42
2022-11-01T10:26:27.744Z,0.93
2022-11-01T10:31:29.814Z,1.58
2022-11-01T10:36:35.047Z,1.13
2022-11-01T10:41:50.162Z,1.35
2022-11-01T10:46:52.040Z,1.20
2022-11-01T10:51:56.613Z,1.08
2022-11-01T10:57:00.608Z,1.00
2022-11-01T11:02:05.493Z,1.00
2022-11-01T11:07:14.090Z,1.10
2022-11-01T11:12:19.791Z,0.98
2022-11-01T11:17:21.203Z,1.10
2022-11-01T11:22:23.099Z,0.98
2022-11-01T11:27:28.743Z,0.88
2022-11-01T11:32:31.894Z,1.00
2022-11-01T11:37:34.231Z,1.30
2022-11-01T11:42:35.841Z,1.30
2022-11-01T11:47:40.506Z,1.85
2022-11-01T11:52:42.544Z,1.17
2022-11-01T11:57:50.555Z,0.98
2022-11-01T12:02:52.094Z,1.20
2022-11-01T12:07:54.220Z,1.00
2022-11-01T12:12:56.913Z,1.08
2022-11-01T12:18:12.930Z,0.82
2022-11-01T12:23:19.989Z,0.98
2022-11-01T12:28:42.732Z,1.20
2022-11-01T12:34:05.254Z,1.05
2022-11-01T12:39:10.388Z,1.17
2022-11-01T12:44:11.932Z,1.00
2022-11-01T12:49:24.227Z,0.95
2022-11-01T12:54:32.558Z,1.20
2022-11-01T12:59:35.915Z,1.05
2022-11-01T13:04:55.854Z,1.20
2022-11-01T13:10:00.530Z,0.93
2022-11-01T13:15:06.399Z,1.30
2022-11-01T13:20:14.631Z,1.33
2022-11-01T13:25:34.634Z,1.45
2022-11-01T13:30:39.678Z,1.47
2022-11-01T13:35:59.723Z,1.38
2022-11-01T13:41:04.131Z,1.17
2022-11-01T13:46:05.945Z,1.10
2022-11-01T13:51:16.491Z,1.40
2022-11-01T13:56:22.462Z,1.48
2022-11-01T14:01:30.226Z,0.93
2022-11-01T14:06:41.929Z,1.00
2022-11-01T14:11:44.941Z,0.93
2022-11-01T14:16:46.352Z,1.30
2022-11-01T14:21:48.838Z,1.05
2022-11-01T14:27:01.146Z,1.20
2022-11-01T14:32:03.072Z,1.02
2022-11-01T14:37:14.671Z,1.27
2022-11-01T14:42:23.003Z,1.10
2022-11-01T14:47:40.826Z,1.20
2022-11-01T14:52:45.103Z,1.05
2022-11-01T14:57:48.535Z,1.13
2022-11-01T15:02:51.053Z,1.02
2022-11-01T15:07:56.602Z,1.25
2022-11-01T15:12:59.008Z,1.42
2022-11-01T15:18:13.163Z,1.30
2022-11-01T15:23:17.962Z,1.15
2022-11-01T15:28:23.906Z,0.88
2022-11-01T15:33:32.643Z,1.33
2022-11-01T15:38:35.803Z,1.08
2022-11-01T15:43:37.208Z,2.60
2022-11-01T15:48:38.959Z,1.05
2022-11-01T15:53:42.661Z,1.38
2022-11-01T15:58:50.848Z,1.52
2022-11-01T16:03:52.284Z,2.08
2022-11-01T16:08:53.682Z,1.63
2022-11-01T16:14:15.331Z,1.33
2022-11-01T16:19:50.983Z,1.35
2022-11-01T16:25:00.392Z,1.55
2022-11-01T16:30:10.312Z,1.42
2022-11-01T16:35:44.001Z,1.80
2022-11-01T16:40:45.513Z,1.77
2022-11-01T16:45:46.943Z,1.88
2022-11-01T16:50:48.466Z,1.77
2022-11-01T16:55:49.982Z,1.80
2022-11-01T17:00:53.570Z,1.67
2022-11-01T17:05:56.485Z,1.83
2022-11-01T17:10:58.071Z,1.70
2022-11-01T17:15:59.507Z,1.80
2022-11-01T17:21:03.664Z,1.75
2022-11-01T17:26:07.592Z,2.08
2022-11-01T17:31:09.119Z,1.70
2022-11-01T17:36:14.431Z,1.70
2022-11-01T17:41:18.123Z,1.70
2022-11-01T17:46:21.771Z,2.15
2022-11-01T17:51:23.219Z,2.20
2022-11-01T17:56:25.352Z,1.90
2022-11-01T18:01:26.979Z,1.98
2022-11-01T18:06:28.586Z,2.08
2022-11-01T18:11:43.897Z,1.88
2022-11-01T18:16:49.320Z,1.67
2022-11-01T18:21:50.758Z,3.85
2022-11-01T18:26:52.385Z,2.40
2022-11-01T18:32:04.085Z,2.08
2022-11-01T18:37:08.258Z,1.98
2022-11-01T18:42:10.398Z,1.70
2022-11-01T18:47:15.172Z,2.05
2022-11-01T18:52:18.132Z,2.50
2022-11-01T18:57:20.371Z,3.03
2022-11-01T19:02:27.234Z,2.28
2022-11-01T19:07:39.417Z,2.38
2022-11-01T19:12:56.239Z,1.88
2022-11-01T19:17:59.457Z,2.35
2022-11-01T19:23:09.373Z,1.70
2022-11-01T19:28:27.729Z,1.33
2022-11-01T19:33:31.979Z,1.40
2022-11-01T19:38:33.439Z,1.60
2022-11-01T19:43:34.881Z,1.25
2022-11-01T19:48:36.323Z,1.40
2022-11-01T19:53:40.256Z,1.40
2022-11-01T19:58:49.129Z,0.68
2022-11-01T20:03:55.435Z,0.77
2022-11-01T20:09:32.429Z,0.98
2022-11-01T20:14:35.330Z,1.00
2022-11-01T20:19:36.766Z,1.00
2022-11-01T20:24:38.205Z,1.30
2022-11-01T20:29:39.627Z,0.85
2022-11-01T20:34:41.227Z,1.05
2022-11-01T20:39:42.640Z,1.00
2022-11-01T20:44:44.053Z,1.45
2022-11-01T20:49:45.480Z,1.48
2022-11-01T20:54:47.004Z,1.90
2022-11-01T20:59:50.761Z,1.70
2022-11-01T21:04:57.845Z,2.25
2022-11-01T21:09:59.331Z,2.33
2022-11-01T21:15:02.348Z,2.45
2022-11-01T21:20:18.322Z,2.00
2022-11-01T21:25:22.599Z,2.65
2022-11-01T21:30:24.016Z,2.28
2022-11-01T21:35:38.903Z,2.28
2022-11-01T21:40:40.316Z,2.28
2022-11-01T21:45:41.725Z,2.35
2022-11-01T21:50:43.140Z,2.72
2022-11-01T21:55:44.549Z,2.13
2022-11-01T22:00:46.143Z,2.05
2022-11-01T22:05:47.548Z,2.17
2022-11-01T22:10:48.989Z,2.17
2022-11-01T22:15:50.376Z,2.63
2022-11-01T22:20:51.794Z,2.13
2022-11-01T22:25:53.184Z,2.35
2022-11-01T22:30:54.639Z,2.53
2022-11-01T22:35:56.061Z,2.00
2022-11-01T22:41:01.906Z,2.53
2022-11-01T22:46:03.326Z,2.20
2022-11-01T22:51:09.910Z,2.70
2022-11-01T22:56:11.614Z,2.92
2022-11-01T23:01:23.492Z,2.85
2022-11-01T23:06:33.890Z,3.17
2022-11-01T23:11:53.926Z,3.20
2022-11-01T23:16:55.360Z,2.70
2022-11-01T23:21:56.778Z,2.88
2022-11-01T23:26:58.210Z,2.70
2022-11-01T23:31:59.640Z,3.05
2022-11-01T23:37:01.030Z,2.45
2022-11-01T23:42:02.432Z,2.95
2022-11-01T23:47:09.655Z,3.17
2022-11-01T23:52:29.550Z,2.50
2022-11-01T23:57:30.952Z,2.20
